createdAt,value
2023-04-01T00:00:52.403Z,97255.06
2023-04-01T00:03:57.445Z,97245.66
2023-04-01T00:07:02.831Z,97237.13
2023-04-01T00:10:07.162Z,97254.41
2023-04-01T00:13:11.095Z,97240.41
2023-04-01T00:16:21.728Z,97248.53
2023-04-01T00:19:26.195Z,97252.34
2023-04-01T00:22:31.071Z,97241.59
2023-04-01T00:25:34.925Z,97235.72
2023-04-01T00:28:38.656Z,97249.66
2023-04-01T00:31:42.618Z,97248.69
2023-04-01T00:34:46.657Z,97252.44
2023-04-01T00:37:52.057Z,97248.75
2023-04-01T00:41:01.201Z,97239.25
2023-04-01T00:44:19.634Z,97250.41
2023-04-01T00:47:25.106Z,97241.88
2023-04-01T00:50:30.992Z,97249.41
2023-04-01T00:53:43.647Z,97245.19
2023-04-01T00:56:57.139Z,97248.16
2023-04-01T01:00:01.599Z,97250.13
2023-04-01T01:03:05.237Z,97244.69
2023-04-01T01:06:24.083Z,97247.78
2023-04-01T01:09:44.082Z,97243.63
2023-04-01T01:12:53.194Z,97240.41
2023-04-01T01:16:02.719Z,97227.59
2023-04-01T01:19:19.507Z,97234.94
2023-04-01T01:22:51.984Z,97224.34
2023-04-01T01:26:27.316Z,97232.69
2023-04-01T01:29:56.890Z,97226.84
2023-04-01T01:33:20.618Z,97224.81
2023-04-01T01:36:35.754Z,97210.84
2023-04-01T01:39:43.924Z,97212.94
2023-04-01T01:42:52.417Z,97216.13
2023-04-01T01:45:59.630Z,97225.31
2023-04-01T01:49:06.186Z,97217.38
2023-04-01T01:52:11.175Z,97222.25
2023-04-01T01:55:31.552Z,97219.59
2023-04-01T01:58:41.844Z,97208.75
2023-04-01T02:01:53.048Z,97218.75
2023-04-01T02:04:57.005Z,97219.91
2023-04-01T02:08:07.619Z,97213.81
2023-04-01T02:11:14.184Z,97214.63
2023-04-01T02:14:22.773Z,97208.75
2023-04-01T02:17:30.020Z,97220.56
2023-04-01T02:20:34.708Z,97230.63
2023-04-01T02:23:40.962Z,97226.69
2023-04-01T02:26:46.385Z,97226.28
2023-04-01T02:29:50.071Z,97230.16
2023-04-01T02:32:54.249Z,97226.38
2023-04-01T02:35:58.062Z,97222.34
2023-04-01T02:39:05.377Z,97223.00
2023-04-01T02:42:08.848Z,97231.34
2023-04-01T02:45:13.883Z,97232.63
2023-04-01T02:48:17.468Z,97230.44
2023-04-01T02:51:21.122Z,97238.16
2023-04-01T02:54:26.173Z,97241.09
2023-04-01T02:57:30.414Z,97241.88
2023-04-01T03:00:34.234Z,97244.28
2023-04-01T03:03:38.130Z,97239.88
2023-04-01T03:06:41.621Z,97248.00
2023-04-01T03:09:46.786Z,97248.47
2023-04-01T03:12:50.419Z,97247.69
2023-04-01T03:15:55.558Z,97248.84
2023-04-01T03:19:00.829Z,97244.53
2023-04-01T03:22:04.556Z,97251.25
2023-04-01T03:25:10.903Z,97250.25
2023-04-01T03:28:15.558Z,97249.16
2023-04-01T03:31:20.400Z,97248.44
2023-04-01T03:34:29.377Z,97250.81
2023-04-01T03:37:33.184Z,97251.38
2023-04-01T03:40:39.401Z,97256.28
2023-04-01T03:43:43.391Z,97246.31
2023-04-01T03:46:47.492Z,97252.81
2023-04-01T03:49:52.012Z,97257.28
2023-04-01T03:52:55.599Z,97256.72
2023-04-01T03:56:00.433Z,97260.06
2023-04-01T03:59:05.720Z,97260.56
2023-04-01T04:02:09.176Z,97262.50
2023-04-01T04:05:14.376Z,97260.31
2023-04-01T04:08:18.482Z,97265.34
2023-04-01T04:11:24.864Z,97267.28
2023-04-01T04:14:29.985Z,97271.09
2023-04-01T04:17:33.938Z,97270.50
2023-04-01T04:20:37.370Z,97262.69
2023-04-01T04:23:40.896Z,97269.28
2023-04-01T04:26:45.768Z,97270.09
2023-04-01T04:29:49.603Z,97271.13
2023-04-01T04:32:53.042Z,97268.03
2023-04-01T04:35:58.388Z,97274.28
2023-04-01T04:39:04.308Z,97282.53
2023-04-01T04:42:11.124Z,97269.16
2023-04-01T04:45:14.874Z,97275.25
2023-04-01T04:48:26.569Z,97273.56
2023-04-01T04:51:30.160Z,97275.63
2023-04-01T04:54:33.565Z,97270.50
2023-04-01T04:57:41.449Z,97275.78
2023-04-01T05:00:45.170Z,97273.59
2023-04-01T05:03:56.532Z,97278.03
2023-04-01T05:07:00.131Z,97276.94
2023-04-01T05:10:03.809Z,97277.53
2023-04-01T05:13:09.483Z,97286.97
2023-04-01T05:16:15.029Z,97283.69
2023-04-01T05:19:18.732Z,97272.78
2023-04-01T05:22:22.377Z,97285.69
2023-04-01T05:25:25.974Z,97278.88
2023-04-01T05:28:30.858Z,97274.88
2023-04-01T05:31:34.562Z,97279.44
2023-04-01T05:34:38.996Z,97284.94
2023-04-01T05:37:43.044Z,97284.38
2023-04-01T05:40:46.789Z,97289.66
2023-04-01T05:43:52.150Z,97286.75
2023-04-01T05:47:14.152Z,97292.59
2023-04-01T05:50:17.743Z,97291.09
2023-04-01T05:53:21.554Z,97290.03
2023-04-01T05:56:24.961Z,97289.31
2023-04-01T05:59:32.244Z,97287.13
2023-04-01T06:02:36.281Z,97287.56
2023-04-01T06:05:42.711Z,97292.56
2023-04-01T06:08:46.473Z,97290.88
2023-04-01T06:12:10.851Z,97289.91
2023-04-01T06:15:37.144Z,97295.69
2023-04-01T06:18:54.744Z,97296.34
2023-04-01T06:22:31.159Z,97297.56
2023-04-01T06:25:54.235Z,97303.31
2023-04-01T06:29:23.913Z,97302.16
2023-04-01T06:32:49.133Z,97305.13
2023-04-01T06:36:09.220Z,97297.03
2023-04-01T06:39:26.581Z,97297.56
2023-04-01T06:42:53.906Z,97306.66
2023-04-01T06:46:29.307Z,97298.34
2023-04-01T06:50:04.044Z,97306.50
2023-04-01T06:53:36.413Z,97307.53
2023-04-01T06:56:53.168Z,97308.94
2023-04-01T07:00:03.304Z,97304.75
2023-04-01T07:03:22.100Z,97312.28
2023-04-01T07:06:32.926Z,97310.47
2023-04-01T07:09:43.008Z,97310.53
2023-04-01T07:13:10.998Z,97312.44
2023-04-01T07:16:26.837Z,97312.75
2023-04-01T07:19:36.025Z,97308.03
2023-04-01T07:22:46.632Z,97311.34
2023-04-01T07:26:19.316Z,97321.50
2023-04-01T07:29:34.652Z,97321.38
2023-04-01T07:32:44.778Z,97320.69
2023-04-01T07:35:58.011Z,97328.91
2023-04-01T07:39:13.638Z,97323.34
2023-04-01T07:42:43.669Z,97321.63
2023-04-01T07:45:56.072Z,97323.44
2023-04-01T07:49:07.056Z,97330.31
2023-04-01T07:52:19.149Z,97324.66
2023-04-01T07:55:33.283Z,97331.03
2023-04-01T07:58:48.724Z,97328.66
2023-04-01T08:02:23.594Z,97342.56
2023-04-01T08:05:30.457Z,97340.38
2023-04-01T08:08:50.853Z,97344.53
2023-04-01T08:12:28.436Z,97347.31
2023-04-01T08:15:45.299Z,97356.88
2023-04-01T08:19:12.231Z,97359.41
2023-04-01T08:22:23.690Z,97359.69
2023-04-01T08:25:30.088Z,97351.44
2023-04-01T08:28:41.666Z,97356.06
2023-04-01T08:31:56.432Z,97353.56
2023-04-01T08:35:10.888Z,97357.75
2023-04-01T08:38:21.540Z,97357.50
2023-04-01T08:42:00.947Z,97349.69
2023-04-01T08:45:55.871Z,97355.44
2023-04-01T08:49:16.682Z,97354.03
2023-04-01T08:52:37.457Z,97357.94
2023-04-01T08:56:08.676Z,97360.16
2023-04-01T08:59:33.616Z,97358.91
2023-04-01T09:03:30.973Z,97361.28
2023-04-01T09:06:42.648Z,97362.69
2023-04-01T09:10:14.153Z,97359.34
2023-04-01T09:13:44.806Z,97359.91
2023-04-01T09:17:11.369Z,97355.72
2023-04-01T09:20:43.918Z,97361.44
2023-04-01T09:24:20.303Z,97354.47
2023-04-01T09:27:31.910Z,97352.94
2023-04-01T09:31:02.065Z,97355.69
2023-04-01T09:34:39.977Z,97353.47
2023-04-01T09:38:01.524Z,97360.59
2023-04-01T09:41:23.345Z,97355.84
2023-04-01T09:44:38.235Z,97364.91
2023-04-01T09:48:07.990Z,97363.13
2023-04-01T09:51:59.611Z,97364.94
2023-04-01T09:55:51.100Z,97368.56
2023-04-01T09:59:17.439Z,97363.13
2023-04-01T10:03:16.111Z,97355.03
2023-04-01T10:07:10.115Z,97362.84
2023-04-01T10:10:49.797Z,97365.34
2023-04-01T10:14:30.997Z,97357.66
2023-04-01T10:18:06.255Z,97352.63
2023-04-01T10:21:45.952Z,97358.34
2023-04-01T10:25:26.949Z,97363.94
2023-04-01T10:28:53.645Z,97354.03
2023-04-01T10:33:16.482Z,97352.06
2023-04-01T10:36:58.514Z,97362.38
2023-04-01T10:40:35.879Z,97355.72
2023-04-01T10:44:27.147Z,97358.91
2023-04-01T10:48:06.411Z,97362.41
2023-04-01T10:51:20.362Z,97379.16
2023-04-01T10:54:45.709Z,97380.81
2023-04-01T10:58:50.742Z,97377.34
2023-04-01T11:03:13.968Z,97383.22
2023-04-01T11:07:24.577Z,97388.09
2023-04-01T11:11:03.589Z,97396.56
2023-04-01T11:14:39.876Z,97395.28
2023-04-01T11:18:19.480Z,97403.13
2023-04-01T11:21:58.775Z,97403.81
2023-04-01T11:25:47.592Z,97404.06
2023-04-01T11:29:56.726Z,97400.44
2023-04-01T11:33:10.885Z,97397.00
2023-04-01T11:36:31.253Z,97398.81
2023-04-01T11:39:46.259Z,97402.31
2023-04-01T11:43:36.924Z,97404.84
2023-04-01T11:47:21.884Z,97409.19
2023-04-01T11:50:38.390Z,97403.72
2023-04-01T11:53:52.866Z,97413.09
2023-04-01T11:57:15.298Z,97421.19
2023-04-01T12:00:37.911Z,97422.59
2023-04-01T12:03:58.730Z,97430.38
2023-04-01T12:07:08.459Z,97428.03
2023-04-01T12:10:20.502Z,97428.56
2023-04-01T12:13:34.307Z,97428.56
2023-04-01T12:16:50.467Z,97427.88
2023-04-01T12:19:59.630Z,97429.72
2023-04-01T12:23:17.861Z,97432.34
2023-04-01T12:26:38.952Z,97432.75
2023-04-01T12:30:03.316Z,97431.19
2023-04-01T12:33:45.199Z,97439.88
2023-04-01T12:37:02.536Z,97438.47
2023-04-01T12:40:27.357Z,97447.16
2023-04-01T12:44:03.580Z,97446.06
2023-04-01T12:47:25.764Z,97449.78
2023-04-01T12:50:42.576Z,97449.97
2023-04-01T12:54:25.462Z,97454.00
2023-04-01T12:57:50.528Z,97457.75
2023-04-01T13:01:29.569Z,97454.13
2023-04-01T13:05:09.912Z,97454.94
2023-04-01T13:08:31.531Z,97466.13
2023-04-01T13:11:44.818Z,97462.59
2023-04-01T13:15:09.476Z,97462.44
2023-04-01T13:18:28.416Z,97461.03
2023-04-01T13:21:47.151Z,97461.16
2023-04-01T13:24:58.914Z,97462.88
2023-04-01T13:28:15.458Z,97466.72
2023-04-01T13:31:33.074Z,97468.28
2023-04-01T13:35:04.195Z,97478.75
2023-04-01T13:38:33.994Z,97468.19
2023-04-01T13:41:51.169Z,97477.00
2023-04-01T13:45:03.700Z,97477.41
2023-04-01T13:48:36.178Z,97483.41
2023-04-01T13:52:10.753Z,97475.25
2023-04-01T13:55:29.097Z,97470.31
2023-04-01T13:58:46.131Z,97473.69
2023-04-01T14:02:02.644Z,97473.31
2023-04-01T14:05:42.078Z,97489.31
2023-04-01T14:09:14.116Z,97480.88
2023-04-01T14:12:31.192Z,97484.06
2023-04-01T14:15:51.523Z,97493.19
2023-04-01T14:19:21.281Z,97500.81
2023-04-01T14:22:39.993Z,97493.19
2023-04-01T14:26:10.813Z,97496.34
2023-04-01T14:29:26.546Z,97500.72
2023-04-01T14:32:42.377Z,97511.78
2023-04-01T14:35:58.864Z,97528.59
2023-04-01T14:39:18.647Z,97527.72
2023-04-01T14:42:54.486Z,97528.81
2023-04-01T14:46:15.059Z,97525.22
2023-04-01T14:49:32.755Z,97532.22
2023-04-01T14:52:40.263Z,97539.19
2023-04-01T14:55:52.425Z,97531.91
2023-04-01T14:59:00.294Z,97536.25
2023-04-01T15:02:20.766Z,97544.47
2023-04-01T15:05:35.751Z,97543.59
2023-04-01T15:08:54.488Z,97549.72
2023-04-01T15:12:07.246Z,97561.31
2023-04-01T15:15:30.246Z,97573.09
2023-04-01T15:18:51.874Z,97567.53
2023-04-01T15:22:17.589Z,97569.34
2023-04-01T15:25:41.006Z,97579.34
2023-04-01T15:29:02.519Z,97579.56
2023-04-01T15:32:19.183Z,97580.13
2023-04-01T15:35:33.734Z,97581.09
2023-04-01T15:38:46.923Z,97580.78
2023-04-01T15:42:14.078Z,97585.97
2023-04-01T15:45:36.053Z,97595.25
2023-04-01T15:48:54.476Z,97598.84
2023-04-01T15:52:05.983Z,97594.66
2023-04-01T15:55:27.130Z,97604.13
2023-04-01T15:58:50.974Z,97603.88
2023-04-01T16:02:10.176Z,97604.28
2023-04-01T16:05:40.103Z,97614.88
2023-04-01T16:09:11.988Z,97611.31
2023-04-01T16:12:22.943Z,97613.13
2023-04-01T16:15:37.526Z,97619.00
2023-04-01T16:19:11.409Z,97619.00
2023-04-01T16:22:21.902Z,97617.31
2023-04-01T16:25:36.395Z,97623.91
2023-04-01T16:28:50.816Z,97623.31
2023-04-01T16:32:01.825Z,97635.03
2023-04-01T16:35:25.626Z,97639.81
2023-04-01T16:38:38.825Z,97641.22
2023-04-01T16:41:51.468Z,97648.19
2023-04-01T16:45:01.648Z,97652.94
2023-04-01T16:48:17.148Z,97659.66
2023-04-01T16:51:22.360Z,97665.28
2023-04-01T16:54:33.898Z,97661.91
2023-04-01T16:57:49.776Z,97667.34
2023-04-01T17:01:01.379Z,97673.25
2023-04-01T17:04:20.740Z,97673.94
2023-04-01T17:07:40.555Z,97681.19
2023-04-01T17:10:54.261Z,97690.09
2023-04-01T17:14:09.818Z,97690.03
2023-04-01T17:17:25.848Z,97694.44
2023-04-01T17:20:42.803Z,97698.66
2023-04-01T17:23:53.248Z,97700.44
2023-04-01T17:27:06.867Z,97711.38
2023-04-01T17:30:26.556Z,97708.31
2023-04-01T17:33:50.871Z,97719.53
2023-04-01T17:37:10.507Z,97724.88
2023-04-01T17:40:31.146Z,97730.13
2023-04-01T17:43:43.902Z,97738.50
2023-04-01T17:47:05.038Z,97742.47
2023-04-01T17:50:23.530Z,97747.06
2023-04-01T17:53:38.716Z,97751.53
2023-04-01T17:56:57.210Z,97753.38
2023-04-01T18:00:05.896Z,97764.16
2023-04-01T18:03:26.473Z,97768.88
2023-04-01T18:06:38.390Z,97774.03
2023-04-01T18:09:58.967Z,97779.13
2023-04-01T18:13:27.233Z,97780.69
2023-04-01T18:16:46.341Z,97786.22
2023-04-01T18:20:03.782Z,97794.78
2023-04-01T18:23:24.077Z,97797.44
2023-04-01T18:26:32.730Z,97803.56
2023-04-01T18:29:49.934Z,97805.03
2023-04-01T18:33:01.219Z,97810.06
2023-04-01T18:36:17.176Z,97810.34
2023-04-01T18:39:26.682Z,97805.06
2023-04-01T18:42:41.357Z,97812.16
2023-04-01T18:45:52.816Z,97816.03
2023-04-01T18:49:07.724Z,97821.78
2023-04-01T18:52:19.118Z,97829.50
2023-04-01T18:55:34.977Z,97828.53
2023-04-01T18:58:51.173Z,97834.47
2023-04-01T19:02:03.229Z,97843.94
2023-04-01T19:05:14.523Z,97840.09
2023-04-01T19:08:27.320Z,97836.13
2023-04-01T19:11:42.313Z,97843.34
2023-04-01T19:15:11.349Z,97842.41
2023-04-01T19:18:38.400Z,97839.28
2023-04-01T19:21:48.057Z,97850.22
2023-04-01T19:25:06.743Z,97851.06
2023-04-01T19:28:27.284Z,97856.25
2023-04-01T19:31:47.289Z,97869.81
2023-04-01T19:35:00.793Z,97866.34
2023-04-01T19:38:13.858Z,97877.06
2023-04-01T19:41:33.659Z,97863.84
2023-04-01T19:44:47.541Z,97874.28
2023-04-01T19:48:04.570Z,97871.28
2023-04-01T19:51:13.986Z,97874.28
2023-04-01T19:54:32.324Z,97892.09
2023-04-01T19:57:47.862Z,97889.94
2023-04-01T20:00:58.743Z,97895.59
2023-04-01T20:04:11.355Z,97896.91
2023-04-01T20:07:24.630Z,97904.59
2023-04-01T20:10:45.709Z,97906.66
2023-04-01T20:14:01.916Z,97909.03
2023-04-01T20:17:19.145Z,97909.50
2023-04-01T20:20:28.312Z,97912.53
2023-04-01T20:23:47.207Z,97902.69
2023-04-01T20:26:57.204Z,97906.41
2023-04-01T20:30:37.455Z,97916.03
2023-04-01T20:34:04.022Z,97917.94
2023-04-01T20:37:38.091Z,97920.09
2023-04-01T20:40:44.228Z,97930.28
2023-04-01T20:44:13.066Z,97923.81
2023-04-01T20:47:26.904Z,97931.25
2023-04-01T20:50:35.263Z,97935.91
2023-04-01T20:53:45.944Z,97935.31
2023-04-01T20:57:03.385Z,97943.47
2023-04-01T21:00:25.297Z,97949.47
2023-04-01T21:03:40.709Z,97946.59
2023-04-01T21:06:55.294Z,97946.94
2023-04-01T21:10:14.736Z,97948.22
2023-04-01T21:13:33.901Z,97956.16
2023-04-01T21:16:46.221Z,97952.22
2023-04-01T21:20:10.702Z,97952.16
2023-04-01T21:23:31.255Z,97958.16
2023-04-01T21:26:54.744Z,97963.53
2023-04-01T21:30:14.382Z,97975.97
2023-04-01T21:33:40.586Z,97974.47
2023-04-01T21:37:03.923Z,97983.69
2023-04-01T21:40:35.709Z,97994.72
2023-04-01T21:44:08.425Z,97990.44
2023-04-01T21:47:47.862Z,97991.78
2023-04-01T21:51:39.287Z,97993.06
2023-04-01T21:55:01.557Z,97993.06
2023-04-01T21:58:42.652Z,97992.34
2023-04-01T22:02:15.347Z,97998.59
2023-04-01T22:05:22.723Z,97999.94
2023-04-01T22:08:43.601Z,97999.59
2023-04-01T22:11:55.997Z,97997.06
2023-04-01T22:15:11.072Z,98000.22
2023-04-01T22:18:23.333Z,98001.50
2023-04-01T22:21:34.892Z,98006.13
2023-04-01T22:24:50.363Z,98012.28
2023-04-01T22:28:00.578Z,98012.38
2023-04-01T22:31:06.522Z,98016.53
2023-04-01T22:34:19.181Z,98023.50
2023-04-01T22:37:33.798Z,98023.22
2023-04-01T22:40:45.805Z,98018.16
2023-04-01T22:43:50.771Z,98020.81
2023-04-01T22:47:02.840Z,98015.44
2023-04-01T22:50:17.194Z,98023.97
2023-04-01T22:53:32.463Z,98026.44
2023-04-01T22:56:40.839Z,98025.91
2023-04-01T22:59:50.855Z,98039.31
2023-04-01T23:03:13.861Z,98037.94
2023-04-01T23:06:24.250Z,98050.63
2023-04-01T23:09:30.462Z,98038.47
2023-04-01T23:12:36.237Z,98049.88
2023-04-01T23:15:40.142Z,98049.75
2023-04-01T23:18:53.016Z,98049.13
2023-04-01T23:22:14.873Z,98052.50
2023-04-01T23:25:34.020Z,98061.19
2023-04-01T23:28:47.656Z,98069.41
2023-04-01T23:32:01.156Z,98063.06
2023-04-01T23:35:04.758Z,98074.28
2023-04-01T23:38:10.905Z,98078.28
2023-04-01T23:41:22.581Z,98073.53
2023-04-01T23:44:28.511Z,98077.84
2023-04-01T23:47:34.816Z,98083.13
2023-04-01T23:50:39.126Z,98083.31
2023-04-01T23:53:47.705Z,98089.09
2023-04-01T23:56:54.065Z,98087.63
